Time;durP1;ratioP1;P1;durP2;ratioP2;P2;SDS_P1;SDS_P2;PMS_P1;PMS_P2;Temp;Humidity;BMP_temperature;BMP_pressure;BME280_temperature;BME280_humidity;BME280_pressure;Samples;Min_cycle;Max_cycle;Signal;HPM_P1;HPM_P2
2021/04/09 00:01:04;;;;;;;4.38;1.40;;;7.90;99.90;;;;;;4937823;29;20051;-85
2021/04/09 00:03:30;;;;;;;4.82;1.27;;;8.00;99.90;;;;;;4937710;29;20051;-85
2021/04/09 00:05:57;;;;;;;8.63;1.45;;;8.00;99.90;;;;;;4937664;29;20384;-85
2021/04/09 00:08:23;;;;;;;14.18;4.10;;;8.00;99.90;;;;;;4937792;29;20062;-84
2021/04/09 00:10:51;;;;;;;8.85;1.58;;;8.10;99.90;;;;;;4937962;29;20082;-85
2021/04/09 00:13:17;;;;;;;8.63;1.10;;;8.10;99.90;;;;;;4937569;29;20469;-85
2021/04/09 00:15:44;;;;;;;4.25;1.23;;;8.10;99.90;;;;;;4937569;29;20078;-84
2021/04/09 00:18:11;;;;;;;13.93;1.55;;;8.10;99.90;;;;;;4937345;29;20065;-86
2021/04/09 00:20:37;;;;;;;5.38;1.20;;;8.10;99.90;;;;;;4937462;29;20052;-85
2021/04/09 00:23:04;;;;;;;9.68;1.70;;;8.00;99.90;;;;;;4937414;29;20053;-86
2021/04/09 00:25:30;;;;;;;8.82;1.88;;;8.00;99.90;;;;;;4937429;29;20059;-85
2021/04/09 00:27:58;;;;;;;3.65;1.88;;;8.00;99.90;;;;;;4937196;29;20048;-84
2021/04/09 00:30:26;;;;;;;5.25;1.60;;;8.00;99.90;;;;;;4937237;29;20457;-85
2021/04/09 00:32:53;;;;;;;9.38;2.67;;;8.00;99.90;;;;;;4937438;29;20067;-86
2021/04/09 00:35:19;;;;;;;9.02;1.98;;;8.10;99.90;;;;;;4937754;29;20083;-86
2021/04/09 00:37:46;;;;;;;3.95;1.45;;;8.10;99.90;;;;;;4937348;29;20472;-86
2021/04/09 00:40:13;;;;;;;6.05;1.77;;;8.10;99.90;;;;;;4937325;29;20051;-86
2021/04/09 00:42:41;;;;;;;2.70;1.20;;;8.10;99.90;;;;;;4937430;29;20055;-85
2021/04/09 00:45:09;;;;;;;6.32;1.75;;;8.10;99.90;;;;;;4937227;29;20062;-86
2021/04/09 00:47:36;;;;;;;7.18;1.33;;;8.10;99.90;;;;;;4937204;29;20361;-86
2021/04/09 00:50:02;;;;;;;8.80;1.85;;;8.20;99.90;;;;;;4937200;29;20052;-87
2021/04/09 00:52:30;;;;;;;3.35;1.00;;;8.20;99.90;;;;;;4937017;29;20051;-86
2021/04/09 00:54:58;;;;;;;9.00;1.42;;;8.20;99.90;;;;;;4937062;29;20066;-86
2021/04/09 00:57:24;;;;;;;3.80;1.40;;;8.20;99.90;;;;;;4936864;29;20056;-85
2021/04/09 00:59:51;;;;;;;4.18;1.20;;;8.20;99.90;;;;;;4937028;29;20044;-86
2021/04/09 01:02:18;;;;;;;3.97;1.48;;;8.20;99.90;;;;;;4936837;29;20679;-85
2021/04/09 01:04:45;;;;;;;2.80;0.98;;;8.20;99.90;;;;;;4937292;29;20058;-85
2021/04/09 01:07:11;;;;;;;2.58;0.68;;;8.20;99.90;;;;;;4937105;29;20058;-85
2021/04/09 01:09:38;;;;;;;3.88;0.65;;;8.20;99.90;;;;;;4937124;29;20055;-83
2021/04/09 01:12:05;;;;;;;2.08;0.90;;;8.10;99.90;;;;;;4939479;29;20114;-83
2021/04/09 01:14:32;;;;;;;6.72;1.30;;;7.90;99.90;;;;;;4942204;29;20052;-82
2021/04/09 01:17:02;;;;;;;6.00;1.02;;;7.60;99.90;;;;;;4941913;29;20081;-82
2021/04/09 01:20:03;;;;;;;3.33;0.93;;;7.40;99.90;;;;;;4944046;29;20057;-82
2021/04/09 01:22:32;;;;;;;3.38;0.90;;;7.20;99.90;;;;;;4958222;29;20119;-82
2021/04/09 01:25:26;;;;;;;3.58;1.00;;;7.00;99.90;;;;;;4943911;29;20055;-81
2021/04/09 01:28:05;;;;;;;9.73;1.20;;;6.80;99.90;;;;;;4939525;29;20123;-82
2021/04/09 01:30:58;;;;;;;9.30;1.77;;;6.70;99.90;;;;;;4939826;29;20087;-82
2021/04/09 01:33:30;;;;;;;8.60;1.00;;;6.60;99.90;;;;;;4939073;29;20063;-81
2021/04/09 01:36:00;;;;;;;10.63;1.85;;;6.60;99.90;;;;;;4939920;29;20139;-81
2021/04/09 01:38:27;;;;;;;4.72;0.90;;;6.50;99.90;;;;;;4937960;29;20048;-81
2021/04/09 01:40:54;;;;;;;2.55;1.05;;;6.40;99.90;;;;;;4938439;29;20052;-81
2021/04/09 01:43:21;;;;;;;8.10;1.75;;;6.40;99.90;;;;;;4938672;29;20052;-82
2021/04/09 01:45:48;;;;;;;10.30;1.75;;;6.40;99.90;;;;;;4938205;29;20052;-81
2021/04/09 01:48:14;;;;;;;7.35;1.10;;;6.40;99.90;;;;;;4937749;29;20058;-81
2021/04/09 01:50:42;;;;;;;11.77;1.65;;;6.40;99.90;;;;;;4940750;29;20052;-81
2021/04/09 01:53:09;;;;;;;12.18;1.17;;;6.40;99.90;;;;;;4942768;29;20127;-81
2021/04/09 01:55:37;;;;;;;9.32;1.90;;;6.40;99.90;;;;;;4943123;29;20047;-81
2021/04/09 01:58:04;;;;;;;10.30;1.15;;;6.30;99.90;;;;;;4942791;29;20112;-81
2021/04/09 02:00:31;;;;;;;4.40;1.30;;;6.30;99.90;;;;;;4942027;29;20111;-81
2021/04/09 02:02:57;;;;;;;10.63;1.48;;;6.30;99.90;;;;;;4942729;29;20132;-81
2021/04/09 02:05:26;;;;;;;1.58;0.88;;;6.30;99.90;;;;;;4942767;29;20096;-82
2021/04/09 02:07:55;;;;;;;9.32;1.70;;;6.30;99.90;;;;;;4943593;29;20052;-81
2021/04/09 02:44:53;;;;;;;11.07;2.10;;;6.30;99.90;;;;;;5790692;23;19907;-83
2021/04/09 02:47:22;;;;;;;8.43;2.03;;;6.40;99.90;;;;;;4963191;28;20087;-83
2021/04/09 02:50:12;;;;;;;9.60;2.00;;;6.30;99.90;;;;;;5376245;23;20031;-83
2021/04/09 02:52:44;;;;;;;7.68;1.45;;;6.30;99.90;;;;;;4943152;29;20056;-83
2021/04/09 02:55:13;;;;;;;8.02;3.08;;;6.30;99.90;;;;;;4943372;29;20103;-83
2021/04/09 02:57:40;;;;;;;11.70;1.70;;;6.30;99.90;;;;;;4943442;29;20032;-83
2021/04/09 03:00:09;;;;;;;5.93;1.80;;;6.30;99.90;;;;;;4943020;29;20052;-83
2021/04/09 03:02:36;;;;;;;13.02;1.40;;;6.30;99.90;;;;;;4942475;29;20062;-82
2021/04/09 03:05:04;;;;;;;17.00;1.92;;;6.20;99.90;;;;;;4941564;29;20067;-83
2021/04/09 03:07:30;;;;;;;10.75;2.33;;;6.20;99.90;;;;;;4943113;29;20091;-83
2021/04/09 03:09:58;;;;;;;7.93;1.45;;;6.10;99.90;;;;;;4943465;29;20063;-83
2021/04/09 03:12:25;;;;;;;12.20;2.78;;;6.10;99.90;;;;;;4943591;28;20075;-83
2021/04/09 03:14:52;;;;;;;14.70;3.03;;;6.00;99.90;;;;;;4943629;28;20103;-83
2021/04/09 03:17:23;;;;;;;10.77;1.98;;;6.00;99.90;;;;;;4943617;28;20104;-83
2021/04/09 03:19:50;;;;;;;14.73;1.70;;;6.00;99.90;;;;;;4943395;28;20191;-83
2021/04/09 03:22:16;;;;;;;14.45;1.70;;;6.00;99.90;;;;;;4943793;28;20087;-83
2021/04/09 03:24:43;;;;;;;7.82;2.25;;;5.90;99.90;;;;;;4943390;28;20051;-83
2021/04/09 03:32:22;;;;;;;12.40;3.72;;;5.70;99.90;;;;;;5829953;23;20063;-81
2021/04/09 03:34:48;;;;;;;7.78;2.03;;;5.80;99.90;;;;;;4962038;28;20244;-81
2021/04/09 04:26:27;;;;;;;9.57;1.50;;;5.40;99.90;;;;;;5954826;23;20018;-81
2021/04/09 04:28:54;;;;;;;11.68;1.85;;;5.40;99.90;;;;;;4957723;28;20119;-81
2021/04/09 04:31:21;;;;;;;8.60;1.63;;;5.40;99.90;;;;;;4956120;29;20107;-81
2021/04/09 04:33:47;;;;;;;13.10;1.83;;;5.40;99.90;;;;;;4954700;29;20078;-81
2021/04/09 04:36:14;;;;;;;8.38;1.55;;;5.40;99.90;;;;;;4954748;29;20056;-81
2021/04/09 04:38:41;;;;;;;10.50;1.17;;;5.40;99.90;;;;;;4953693;29;20107;-81
2021/04/09 04:41:07;;;;;;;9.70;2.60;;;5.40;99.90;;;;;;4954378;29;20127;-81
2021/04/09 04:43:35;;;;;;;10.13;2.42;;;5.40;99.90;;;;;;4954026;29;20138;-80
2021/04/09 04:46:01;;;;;;;13.82;1.83;;;5.30;99.90;;;;;;4953310;29;20134;-81
2021/04/09 04:48:28;;;;;;;12.77;1.80;;;5.30;99.90;;;;;;4953753;29;20079;-81
2021/04/09 04:50:54;;;;;;;11.38;2.47;;;5.30;99.90;;;;;;4953729;29;20086;-81
2021/04/09 04:53:21;;;;;;;10.38;2.25;;;5.30;99.90;;;;;;4955248;29;20138;-81
2021/04/09 04:55:48;;;;;;;12.13;3.00;;;5.30;99.90;;;;;;4972685;29;20047;-81
2021/04/09 04:58:14;;;;;;;12.90;1.73;;;5.30;99.90;;;;;;4974192;29;20111;-80
2021/04/09 05:00:42;;;;;;;4.45;1.40;;;5.30;99.90;;;;;;4973274;29;20043;-80
2021/04/09 05:03:08;;;;;;;11.30;1.95;;;5.30;99.90;;;;;;4973518;29;20385;-81
2021/04/09 05:05:35;;;;;;;15.00;2.08;;;5.30;99.90;;;;;;4974119;29;20134;-81
2021/04/09 05:08:01;;;;;;;8.25;1.50;;;5.30;99.90;;;;;;4975320;29;20055;-80
2021/04/09 05:10:28;;;;;;;11.88;2.60;;;5.30;99.90;;;;;;4973623;29;20090;-81
2021/04/09 05:12:54;;;;;;;19.35;3.17;;;5.30;99.90;;;;;;4973475;29;20111;-81
2021/04/09 05:15:21;;;;;;;9.02;2.47;;;5.30;99.90;;;;;;4973428;29;20115;-81
2021/04/09 05:17:49;;;;;;;14.05;2.30;;;5.30;99.90;;;;;;4973890;29;20047;-80
2021/04/09 05:20:15;;;;;;;13.38;1.98;;;5.30;99.90;;;;;;4973024;29;20075;-81
2021/04/09 05:22:42;;;;;;;12.00;1.73;;;5.30;99.90;;;;;;4972832;29;20111;-81
2021/04/09 05:25:09;;;;;;;13.82;1.85;;;5.30;99.90;;;;;;4956056;29;20058;-80
2021/04/09 05:27:36;;;;;;;13.95;2.05;;;5.40;99.90;;;;;;4950226;29;20063;-80
2021/04/09 05:30:03;;;;;;;7.43;1.48;;;5.30;99.90;;;;;;4950864;29;20056;-80
2021/04/09 05:32:30;;;;;;;9.93;1.90;;;5.40;99.90;;;;;;4951621;29;20051;-80
2021/04/09 05:34:57;;;;;;;11.45;2.10;;;5.40;99.90;;;;;;4951090;29;20062;-80
2021/04/09 05:37:24;;;;;;;13.68;3.50;;;5.40;99.90;;;;;;4951391;29;20059;-80
2021/04/09 05:39:50;;;;;;;14.13;2.88;;;5.40;99.90;;;;;;4951644;29;20048;-80
2021/04/09 05:42:17;;;;;;;11.88;1.98;;;5.40;99.90;;;;;;4951718;29;20358;-80
2021/04/09 05:44:44;;;;;;;10.60;1.63;;;5.40;99.90;;;;;;4951239;29;20051;-80
2021/04/09 05:47:11;;;;;;;14.80;2.58;;;5.40;99.90;;;;;;4951470;29;20079;-81
2021/04/09 05:49:37;;;;;;;9.30;2.67;;;5.50;99.90;;;;;;4951514;29;20044;-80
2021/04/09 05:52:06;;;;;;;18.13;2.75;;;5.40;99.90;;;;;;4952273;29;20122;-80
2021/04/09 05:54:32;;;;;;;9.63;2.58;;;5.50;99.90;;;;;;4960550;29;20055;-80
2021/04/09 05:56:59;;;;;;;11.05;2.28;;;5.50;99.90;;;;;;4970754;28;20057;-80
2021/04/09 05:59:26;;;;;;;12.43;1.67;;;5.50;99.90;;;;;;4974118;29;20047;-80
2021/04/09 06:01:52;;;;;;;12.73;3.25;;;5.50;99.90;;;;;;4974001;29;20085;-80
2021/04/09 06:04:19;;;;;;;13.40;2.75;;;5.50;99.90;;;;;;4975107;29;20062;-80
2021/04/09 06:06:46;;;;;;;14.85;2.17;;;5.60;99.90;;;;;;4974848;29;20090;-80
2021/04/09 06:09:13;;;;;;;7.63;2.00;;;5.60;99.90;;;;;;4975149;29;20061;-80
2021/04/09 06:11:40;;;;;;;13.50;1.88;;;5.60;99.90;;;;;;4974539;29;20061;-81
2021/04/09 06:14:06;;;;;;;20.25;2.38;;;5.60;99.90;;;;;;4974851;29;20113;-80
2021/04/09 06:16:33;;;;;;;9.25;2.33;;;5.60;99.90;;;;;;4974850;29;20051;-80
2021/04/09 06:19:01;;;;;;;15.07;2.08;;;5.70;99.90;;;;;;4977504;29;20149;-80
2021/04/09 06:21:27;;;;;;;9.65;1.98;;;5.70;99.90;;;;;;4977645;29;20079;-80
2021/04/09 06:23:54;;;;;;;15.10;3.72;;;5.70;99.90;;;;;;4976734;29;20142;-81
2021/04/09 06:26:22;;;;;;;12.27;1.95;;;5.80;99.90;;;;;;4973976;28;20051;-80
2021/04/09 06:28:48;;;;;;;11.60;2.20;;;5.70;99.90;;;;;;4972965;29;20043;-80
2021/04/09 06:31:15;;;;;;;6.55;1.80;;;5.80;99.90;;;;;;4973340;29;20055;-81
2021/04/09 06:33:41;;;;;;;13.07;3.15;;;5.80;99.90;;;;;;4973276;29;20138;-80
2021/04/09 06:36:08;;;;;;;8.18;2.00;;;5.90;99.90;;;;;;4973868;29;20457;-80
2021/04/09 06:38:35;;;;;;;8.43;2.88;;;5.90;99.90;;;;;;4973280;29;20055;-80
2021/04/09 06:41:03;;;;;;;16.08;3.83;;;6.00;99.90;;;;;;4973540;29;20133;-80
2021/04/09 06:43:30;;;;;;;11.63;1.98;;;6.00;99.90;;;;;;4973799;29;20110;-80
2021/04/09 06:45:57;;;;;;;9.93;3.00;;;6.10;99.90;;;;;;4974455;29;20051;-80
2021/04/09 06:48:23;;;;;;;10.15;2.63;;;6.10;99.90;;;;;;4974194;29;20119;-81
2021/04/09 06:50:50;;;;;;;9.27;2.40;;;6.20;99.90;;;;;;4974730;29;20061;-80
2021/04/09 06:53:17;;;;;;;10.27;2.92;;;6.20;99.90;;;;;;4974864;29;20051;-80
2021/04/09 06:55:44;;;;;;;14.27;2.75;;;6.20;99.90;;;;;;4974485;29;20140;-80
2021/04/09 06:58:12;;;;;;;13.57;2.17;;;6.30;99.90;;;;;;4974331;29;20055;-81
2021/04/09 07:00:39;;;;;;;12.18;1.98;;;6.30;99.90;;;;;;4974331;29;20051;-80
2021/04/09 07:03:08;;;;;;;11.90;3.08;;;6.40;99.90;;;;;;4974334;29;20051;-81
2021/04/09 07:05:36;;;;;;;13.43;3.17;;;6.40;99.90;;;;;;4973513;29;20103;-80
2021/04/09 07:08:02;;;;;;;14.20;2.40;;;6.40;99.90;;;;;;4972507;29;20047;-80
2021/04/09 07:10:29;;;;;;;11.25;3.15;;;6.40;99.90;;;;;;4971614;28;20051;-80
2021/04/09 07:13:05;;;;;;;16.85;3.03;;;6.50;99.90;;;;;;4972864;29;20403;-80
2021/04/09 07:15:37;;;;;;;8.32;2.13;;;6.50;99.90;;;;;;4973646;29;20051;-80
2021/04/09 07:18:06;;;;;;;12.63;2.17;;;6.50;99.90;;;;;;4972414;29;20055;-81
2021/04/09 07:20:33;;;;;;;12.38;3.55;;;6.60;99.90;;;;;;4970297;29;20132;-81
2021/04/09 07:23:00;;;;;;;10.00;2.30;;;6.60;99.90;;;;;;4970580;29;20055;-81
2021/04/09 07:25:27;;;;;;;9.02;2.20;;;6.60;99.90;;;;;;4962680;29;20047;-81
2021/04/09 07:28:09;;;;;;;14.18;2.78;;;6.70;99.90;;;;;;4943008;29;20142;-81
2021/04/09 07:30:36;;;;;;;12.02;2.50;;;6.80;99.90;;;;;;4939119;29;20220;-81
2021/04/09 07:33:03;;;;;;;22.35;2.85;;;7.00;99.90;;;;;;4938943;29;20061;-82
2021/04/09 07:35:30;;;;;;;10.82;2.85;;;7.10;99.90;;;;;;4938435;29;20462;-82
2021/04/09 07:37:57;;;;;;;10.75;1.80;;;7.30;99.90;;;;;;4938312;29;20078;-83
2021/04/09 07:40:28;;;;;;;11.63;2.70;;;7.40;99.90;;;;;;4938144;29;20062;-83
2021/04/09 07:42:55;;;;;;;9.50;2.40;;;7.50;99.90;;;;;;4938003;29;20059;-84
2021/04/09 07:45:22;;;;;;;18.17;3.22;;;7.50;99.90;;;;;;4937908;29;20146;-86
2021/04/09 07:47:59;;;;;;;14.43;3.95;;;7.50;99.90;;;;;;4937885;29;20107;-84
2021/04/09 07:50:38;;;;;;;16.35;3.47;;;7.60;99.90;;;;;;4937579;29;20052;-85
2021/04/09 07:53:05;;;;;;;13.93;2.55;;;7.60;99.90;;;;;;4937945;29;20052;-85
2021/04/09 07:55:32;;;;;;;9.07;2.70;;;7.60;99.90;;;;;;4953861;29;20078;-84
2021/04/09 07:58:15;;;;;;;8.77;2.13;;;7.70;99.90;;;;;;4957036;29;20062;-85
2021/04/09 08:00:42;;;;;;;15.48;2.53;;;7.80;99.90;;;;;;4956786;29;20063;-84
2021/04/09 08:03:09;;;;;;;11.35;3.28;;;7.90;99.90;;;;;;4956951;29;20051;-84
2021/04/09 08:05:36;;;;;;;15.75;3.38;;;8.00;99.90;;;;;;4957041;29;20058;-83
2021/04/09 08:08:03;;;;;;;12.90;2.58;;;8.00;99.90;;;;;;4956794;29;20051;-83
2021/04/09 08:10:31;;;;;;;16.25;2.25;;;8.00;99.90;;;;;;4956789;29;20051;-85
2021/04/09 08:12:58;;;;;;;9.55;2.65;;;7.90;99.90;;;;;;4956610;29;20063;-85
2021/04/09 08:15:25;;;;;;;7.72;2.60;;;7.90;99.90;;;;;;4956591;29;20054;-84
2021/04/09 08:18:03;;;;;;;13.00;3.38;;;7.90;99.90;;;;;;4956631;29;20121;-85
2021/04/09 08:20:31;;;;;;;12.30;2.63;;;7.80;99.90;;;;;;4955778;28;20061;-85
2021/04/09 08:23:00;;;;;;;13.52;2.80;;;7.70;99.90;;;;;;4956586;29;20065;-85
2021/04/09 08:25:28;;;;;;;14.63;3.97;;;7.70;99.90;;;;;;4956267;29;20121;-84
2021/04/09 08:27:54;;;;;;;9.30;2.22;;;7.70;99.90;;;;;;4956231;28;20055;-84
2021/04/09 08:30:22;;;;;;;9.57;2.47;;;7.80;99.90;;;;;;4956004;29;20067;-84
2021/04/09 08:32:48;;;;;;;19.10;4.18;;;7.80;99.90;;;;;;4956276;29;20054;-85
2021/04/09 08:35:15;;;;;;;10.95;3.13;;;7.90;99.90;;;;;;4956154;29;20062;-85
2021/04/09 08:37:41;;;;;;;18.10;2.60;;;8.00;99.90;;;;;;4956075;29;20380;-85
2021/04/09 08:40:10;;;;;;;14.77;2.35;;;8.10;99.90;;;;;;4955842;29;20456;-85
2021/04/09 08:42:36;;;;;;;15.75;2.60;;;8.10;99.90;;;;;;4956038;29;20065;-85
2021/04/09 08:45:05;;;;;;;12.93;2.42;;;8.20;99.90;;;;;;4956173;29;20436;-85
2021/04/09 08:47:31;;;;;;;13.57;3.10;;;8.20;99.90;;;;;;4956223;29;20483;-85
2021/04/09 08:49:58;;;;;;;14.18;3.05;;;8.20;99.90;;;;;;4956367;29;20059;-84
2021/04/09 08:52:25;;;;;;;12.50;3.08;;;8.20;99.90;;;;;;4956196;29;20415;-85
2021/04/09 08:54:52;;;;;;;15.27;2.75;;;8.30;99.90;;;;;;4955849;29;20065;-85
2021/04/09 08:57:32;;;;;;;13.25;2.47;;;8.30;99.90;;;;;;4956468;29;20444;-85
2021/04/09 09:00:10;;;;;;;12.07;2.97;;;8.40;99.90;;;;;;4956311;29;20051;-85
2021/04/09 09:02:41;;;;;;;19.88;4.07;;;8.50;99.90;;;;;;4955941;29;20436;-85
2021/04/09 09:05:08;;;;;;;42.95;3.53;;;8.60;99.90;;;;;;4956038;29;20516;-85
2021/04/09 09:08:06;;;;;;;15.48;2.38;;;8.70;99.90;;;;;;4955996;29;20146;-85
2021/04/09 09:10:53;;;;;;;16.20;3.22;;;8.50;99.90;;;;;;4955900;29;20384;-85
2021/04/09 09:13:27;;;;;;;15.88;3.47;;;8.40;99.90;;;;;;4956152;29;20052;-86
2021/04/09 09:16:01;;;;;;;16.17;3.47;;;8.20;99.90;;;;;;4955837;29;20047;-85
2021/04/09 09:18:47;;;;;;;14.57;3.20;;;8.20;99.90;;;;;;4938656;29;20298;-86
2021/04/09 09:21:38;;;;;;;15.90;3.17;;;8.10;99.90;;;;;;4936459;29;20062;-85
2021/04/09 09:24:16;;;;;;;20.35;3.40;;;8.00;99.90;;;;;;4941062;29;20055;-85
2021/04/09 09:26:43;;;;;;;10.15;4.32;;;8.00;99.90;;;;;;4955281;28;20067;-84
2021/04/09 09:29:21;;;;;;;13.15;2.90;;;7.90;99.90;;;;;;4955946;29;20051;-84
2021/04/09 09:31:58;;;;;;;15.35;2.58;;;7.90;99.90;;;;;;4943055;29;20055;-85
2021/04/09 09:34:44;;;;;;;14.18;2.67;;;7.90;99.90;;;;;;4940177;29;20074;-85
2021/04/09 09:37:18;;;;;;;18.35;2.50;;;7.90;99.90;;;;;;4940478;29;20082;-86
2021/04/09 09:39:49;;;;;;;19.38;3.78;;;7.90;99.90;;;;;;4940302;29;20089;-84
2021/04/09 09:42:43;;;;;;;15.90;3.38;;;7.90;99.90;;;;;;4940001;29;20124;-85
2021/04/09 09:45:13;;;;;;;10.23;2.70;;;8.00;99.90;;;;;;4940468;29;20134;-85
2021/04/09 09:47:41;;;;;;;9.48;2.47;;;8.00;99.90;;;;;;4940358;29;20125;-85
2021/04/09 09:50:16;;;;;;;12.45;2.90;;;7.90;99.90;;;;;;4939850;29;20055;-85
2021/04/09 09:52:43;;;;;;;20.48;3.78;;;7.80;99.90;;;;;;4939927;29;20494;-85
2021/04/09 09:55:11;;;;;;;19.70;3.97;;;7.90;99.90;;;;;;4953115;29;20047;-85
2021/04/09 09:57:51;;;;;;;8.82;1.67;;;7.80;99.90;;;;;;4959443;29;20138;-84
2021/04/09 10:00:40;;;;;;;17.60;2.25;;;7.90;99.90;;;;;;4959028;29;20047;-83
2021/04/09 10:03:14;;;;;;;12.82;2.58;;;7.90;99.90;;;;;;4953289;29;20135;-83
2021/04/09 10:05:41;;;;;;;8.45;2.03;;;7.90;99.90;;;;;;4959362;29;20396;-84
2021/04/09 10:08:08;;;;;;;9.00;1.70;;;7.90;99.90;;;;;;4958694;29;20055;-84
2021/04/09 10:10:39;;;;;;;11.75;2.40;;;8.00;99.90;;;;;;4958681;29;20465;-84
2021/04/09 10:13:16;;;;;;;11.85;1.73;;;8.00;99.90;;;;;;4958977;29;20448;-85
2021/04/09 10:15:43;;;;;;;10.52;2.35;;;8.10;99.90;;;;;;4959074;29;20055;-83
2021/04/09 10:18:10;;;;;;;9.68;1.27;;;8.20;99.90;;;;;;4958655;29;20047;-84
2021/04/09 10:20:37;;;;;;;6.95;0.82;;;8.40;99.90;;;;;;4958930;29;20133;-85
2021/04/09 10:23:03;;;;;;;10.25;1.15;;;8.50;99.90;;;;;;4958997;29;20428;-84
2021/04/09 10:25:30;;;;;;;5.03;0.80;;;8.60;99.90;;;;;;4958775;29;20065;-85
2021/04/09 10:27:57;;;;;;;1.60;1.33;;;8.60;99.90;;;;;;4958538;28;20059;-85
2021/04/09 10:30:27;;;;;;;6.65;1.05;;;8.50;99.90;;;;;;4958609;29;20062;-84
2021/04/09 10:32:55;;;;;;;2.85;0.63;;;8.50;99.90;;;;;;4958486;29;20381;-83
2021/04/09 10:35:22;;;;;;;4.53;0.95;;;8.30;99.90;;;;;;4958725;29;20055;-85
2021/04/09 10:37:49;;;;;;;11.48;1.27;;;8.30;99.90;;;;;;4958533;29;20059;-85
2021/04/09 10:40:16;;;;;;;1.85;0.80;;;8.20;99.90;;;;;;4958107;29;20051;-84
2021/04/09 10:42:42;;;;;;;4.93;1.00;;;8.20;99.90;;;;;;4958179;29;20055;-85
2021/04/09 10:45:20;;;;;;;2.10;0.55;;;8.20;99.90;;;;;;4957565;28;20070;-85
2021/04/09 10:47:46;;;;;;;3.05;0.65;;;8.20;99.90;;;;;;4958200;29;20063;-84
2021/04/09 10:50:15;;;;;;;5.07;1.52;;;8.20;99.90;;;;;;4957961;29;20057;-85
2021/04/09 10:52:41;;;;;;;4.70;1.38;;;8.20;99.90;;;;;;4958136;29;20055;-86
2021/04/09 10:55:09;;;;;;;5.75;1.10;;;8.20;99.90;;;;;;4957570;29;20051;-84
2021/04/09 10:57:36;;;;;;;3.40;0.70;;;8.30;99.90;;;;;;4958445;29;20057;-84
2021/04/09 11:00:04;;;;;;;3.28;0.82;;;8.40;99.90;;;;;;4957928;29;20047;-84
2021/04/09 11:02:31;;;;;;;3.67;0.30;;;8.40;99.90;;;;;;4958258;29;20055;-84
2021/04/09 11:04:58;;;;;;;5.15;0.57;;;8.40;99.90;;;;;;4958170;29;20061;-85
2021/04/09 11:07:41;;;;;;;4.63;0.70;;;8.40;99.90;;;;;;4958094;29;20051;-83
2021/04/09 11:10:09;;;;;;;2.17;0.70;;;8.40;99.90;;;;;;4957513;29;20468;-85
2021/04/09 11:12:35;;;;;;;5.10;0.50;;;8.50;99.90;;;;;;4957662;29;20492;-85
2021/04/09 11:15:08;;;;;;;4.82;1.48;;;8.60;99.90;;;;;;4958424;29;20051;-81
2021/04/09 11:17:35;;;;;;;1.23;0.45;;;8.60;99.90;;;;;;4962480;29;20110;-85
2021/04/09 11:20:04;;;;;;;1.98;0.30;;;8.70;99.90;;;;;;4959812;29;20047;-89
2021/04/09 11:22:31;;;;;;;3.35;1.15;;;8.80;99.90;;;;;;4957818;29;20468;-86
2021/04/09 11:25:00;;;;;;;5.90;0.45;;;8.70;99.90;;;;;;4957626;29;20105;-89
2021/04/09 11:27:27;;;;;;;5.05;0.60;;;8.60;99.90;;;;;;4957485;28;20408;-86
2021/04/09 11:30:12;;;;;;;4.72;0.40;;;8.60;99.90;;;;;;4957549;29;20138;-88
2021/04/09 11:32:40;;;;;;;3.73;0.53;;;8.60;99.90;;;;;;4956654;29;20055;-88
2021/04/09 11:35:09;;;;;;;4.05;0.70;;;8.70;99.90;;;;;;4957024;29;20510;-91
2021/04/09 11:37:42;;;;;;;5.10;0.90;;;8.90;99.90;;;;;;4957288;29;20069;-89
2021/04/09 11:40:14;;;;;;;3.78;0.60;;;9.20;99.90;;;;;;4957229;29;20065;-88
2021/04/09 11:42:41;;;;;;;8.40;0.73;;;9.40;99.90;;;;;;4957389;29;20105;-90
2021/04/09 11:45:08;;;;;;;3.58;0.80;;;9.40;99.90;;;;;;4957481;29;20146;-90
2021/04/09 11:47:35;;;;;;;5.10;1.55;;;9.50;99.90;;;;;;4957265;29;20066;-89
2021/04/09 11:50:13;;;;;;;4.65;0.60;;;9.50;99.90;;;;;;4957311;29;20113;-88
2021/04/09 11:52:53;;;;;;;6.65;1.38;;;9.50;99.90;;;;;;4957550;29;20121;-89
2021/04/09 11:55:21;;;;;;;8.25;1.20;;;9.40;99.90;;;;;;4956875;28;20054;-90
2021/04/09 11:57:48;;;;;;;3.90;0.57;;;9.40;99.90;;;;;;4955862;29;20051;-91
2021/04/09 12:00:19;;;;;;;1.20;0.47;;;9.50;99.90;;;;;;4957154;29;20109;-89
2021/04/09 12:02:49;;;;;;;3.45;0.47;;;9.50;99.90;;;;;;4956919;29;20506;-88
2021/04/09 12:05:18;;;;;;;5.82;0.60;;;9.60;99.90;;;;;;4957089;29;20078;-90
2021/04/09 12:07:44;;;;;;;1.13;0.45;;;9.50;99.90;;;;;;4956975;29;20051;-89
2021/04/09 12:10:12;;;;;;;2.13;0.90;;;9.50;99.70;;;;;;4957010;29;20054;-89
2021/04/09 12:12:39;;;;;;;1.40;0.68;;;9.60;98.00;;;;;;4956769;29;20061;-90
2021/04/09 12:15:07;;;;;;;2.30;0.30;;;9.70;99.50;;;;;;4956678;29;20399;-90
2021/04/09 12:17:33;;;;;;;5.47;1.25;;;9.90;98.00;;;;;;4956775;29;20047;-89
2021/04/09 12:20:00;;;;;;;2.05;0.43;;;10.00;98.90;;;;;;4956726;29;20463;-89
2021/04/09 12:22:26;;;;;;;4.03;0.70;;;10.20;98.10;;;;;;4956860;29;20109;-90
2021/04/09 12:24:54;;;;;;;1.08;0.50;;;10.30;96.00;;;;;;4956451;29;20051;-89
2021/04/09 12:27:20;;;;;;;2.83;1.75;;;10.20;95.20;;;;;;4937731;29;20059;-89
2021/04/09 12:29:48;;;;;;;1.98;0.55;;;10.20;95.30;;;;;;4937109;29;20561;-88
2021/04/09 12:32:15;;;;;;;3.45;0.40;;;10.10;94.30;;;;;;4937116;29;20090;-89
2021/04/09 12:34:41;;;;;;;2.83;1.10;;;10.00;94.80;;;;;;4937365;29;20061;-88
2021/04/09 12:37:08;;;;;;;2.00;1.10;;;10.00;96.40;;;;;;4937539;29;20051;-89
2021/04/09 12:39:34;;;;;;;6.03;1.02;;;9.90;95.30;;;;;;4937129;29;20051;-89
2021/04/09 12:42:02;;;;;;;3.35;0.75;;;10.00;97.20;;;;;;4937162;29;20056;-89
2021/04/09 12:44:28;;;;;;;3.20;0.50;;;10.00;94.90;;;;;;4937304;29;20146;-87
2021/04/09 12:46:56;;;;;;;2.35;1.20;;;10.20;96.50;;;;;;4937137;29;20074;-89
2021/04/09 12:49:22;;;;;;;3.88;0.60;;;10.20;95.30;;;;;;4937410;29;20051;-88
2021/04/09 12:51:49;;;;;;;4.28;0.38;;;10.30;90.90;;;;;;4937286;29;20118;-89
2021/04/09 12:54:16;;;;;;;2.33;0.28;;;10.20;93.00;;;;;;4943007;29;20394;-89
2021/04/09 12:56:42;;;;;;;2.58;0.50;;;10.10;92.80;;;;;;4956270;29;20540;-90
2021/04/09 12:59:09;;;;;;;4.97;0.82;;;10.00;92.80;;;;;;4956004;29;20051;-89
2021/04/09 13:01:35;;;;;;;2.95;0.55;;;10.10;94.10;;;;;;4956108;29;20066;-89
2021/04/09 13:04:03;;;;;;;3.67;0.45;;;10.20;91.80;;;;;;4956372;29;20065;-89
2021/04/09 13:06:30;;;;;;;5.18;0.60;;;10.30;90.70;;;;;;4956218;28;20066;-89
2021/04/09 13:08:56;;;;;;;1.65;0.30;;;10.30;85.00;;;;;;4959905;29;20063;-89
2021/04/09 13:11:23;;;;;;;2.47;1.15;;;10.30;88.60;;;;;;4959724;29;20101;-88
2021/04/09 13:13:49;;;;;;;4.28;0.50;;;10.30;84.70;;;;;;4960026;29;20162;-89
2021/04/09 13:16:16;;;;;;;2.30;0.32;;;10.30;84.90;;;;;;4959614;29;20065;-89
2021/04/09 13:18:43;;;;;;;1.92;0.50;;;10.20;84.80;;;;;;4960056;29;20370;-89
2021/04/09 13:21:10;;;;;;;0.98;0.30;;;10.10;82.70;;;;;;4959751;29;20047;-89
2021/04/09 13:23:37;;;;;;;1.60;0.40;;;10.00;84.60;;;;;;4958996;29;20051;-89
2021/04/09 13:26:03;;;;;;;1.77;0.40;;;10.00;85.20;;;;;;4959786;29;20059;-89
2021/04/09 13:28:30;;;;;;;5.97;1.45;;;10.00;78.30;;;;;;4959446;28;20058;-89
2021/04/09 13:30:58;;;;;;;1.95;0.50;;;10.00;80.60;;;;;;4959572;29;20134;-89
2021/04/09 13:33:25;;;;;;;1.73;0.30;;;10.10;77.00;;;;;;4959561;29;20055;-88
2021/04/09 13:35:52;;;;;;;4.50;0.52;;;10.10;77.70;;;;;;4959590;29;20142;-89
2021/04/09 13:38:19;;;;;;;6.82;0.60;;;10.00;76.70;;;;;;4959289;29;20047;-89
2021/04/09 13:40:46;;;;;;;0.60;0.35;;;9.90;75.60;;;;;;4959418;29;20051;-89
2021/04/09 13:43:13;;;;;;;1.55;0.40;;;10.00;74.60;;;;;;4959439;29;20133;-89
2021/04/09 13:45:39;;;;;;;2.17;0.25;;;9.90;76.90;;;;;;4954682;29;20062;-89
2021/04/09 13:48:06;;;;;;;3.58;0.63;;;9.80;75.90;;;;;;4940177;29;20113;-89
2021/04/09 13:50:33;;;;;;;4.63;0.60;;;9.80;78.70;;;;;;4939973;29;20047;-89
2021/04/09 13:52:59;;;;;;;3.83;0.40;;;9.80;80.60;;;;;;4939935;29;20051;-90
2021/04/09 13:55:27;;;;;;;4.20;0.45;;;9.80;75.60;;;;;;4939784;29;20396;-89
2021/04/09 13:57:54;;;;;;;1.65;0.38;;;9.70;81.30;;;;;;4939675;29;20062;-88
2021/04/09 14:00:21;;;;;;;3.53;0.63;;;9.60;80.60;;;;;;4939736;29;20048;-89
2021/04/09 14:02:48;;;;;;;5.78;0.85;;;9.50;82.20;;;;;;4939807;29;20074;-90
2021/04/09 14:05:15;;;;;;;5.13;0.30;;;9.60;84.70;;;;;;4939885;29;20048;-89
2021/04/09 14:07:41;;;;;;;1.38;0.43;;;9.70;87.90;;;;;;4939391;29;20062;-89
2021/04/09 14:10:09;;;;;;;2.70;0.57;;;9.80;85.40;;;;;;4939307;29;20083;-89
2021/04/09 14:12:37;;;;;;;1.08;0.20;;;9.90;80.60;;;;;;4939641;29;20154;-89
2021/04/09 14:15:04;;;;;;;7.32;0.70;;;9.90;81.00;;;;;;4939645;29;20055;-88
2021/04/09 14:17:31;;;;;;;2.65;0.47;;;9.90;84.00;;;;;;4939456;29;20110;-89
2021/04/09 14:19:58;;;;;;;3.42;0.85;;;10.00;83.50;;;;;;4939816;29;20074;-90
2021/04/09 14:22:24;;;;;;;4.57;0.70;;;10.20;76.30;;;;;;4939081;29;20066;-91
2021/04/09 14:24:51;;;;;;;1.27;0.55;;;10.20;75.30;;;;;;4950515;29;20051;-88
2021/04/09 14:27:17;;;;;;;5.50;0.70;;;10.30;75.70;;;;;;4958532;28;20057;-90